sensor_id;sensor_type;location;lat;lon;timestamp;temperature;humidity
49379;DHT22;35254;47.990;-1.608;2023-09-08T00:02:23;27.20;62.30
49379;DHT22;35254;47.990;-1.608;2023-09-08T00:04:48;27.20;62.20
49379;DHT22;35254;47.990;-1.608;2023-09-08T00:07:14;27.20;62.00
49379;DHT22;35254;47.990;-1.608;2023-09-08T00:09:39;27.20;61.90
49379;DHT22;35254;47.990;-1.608;2023-09-08T00:12:05;27.20;61.90
49379;DHT22;35254;47.990;-1.608;2023-09-08T00:14:31;27.20;61.90
49379;DHT22;35254;47.990;-1.608;2023-09-08T00:16:57;27.20;62.00
49379;DHT22;35254;47.990;-1.608;2023-09-08T00:19:23;27.20;61.90
49379;DHT22;35254;47.990;-1.608;2023-09-08T00:21:49;27.20;61.80
49379;DHT22;35254;47.990;-1.608;2023-09-08T00:24:15;27.20;61.80
49379;DHT22;35254;47.990;-1.608;2023-09-08T00:26:41;27.20;61.90
49379;DHT22;35254;47.990;-1.608;2023-09-08T00:29:06;27.20;61.90
49379;DHT22;35254;47.990;-1.608;2023-09-08T00:31:33;27.20;61.70
49379;DHT22;35254;47.990;-1.608;2023-09-08T00:33:58;27.20;61.70
49379;DHT22;35254;47.990;-1.608;2023-09-08T00:36:24;27.20;61.50
49379;DHT22;35254;47.990;-1.608;2023-09-08T00:38:50;27.20;61.50
49379;DHT22;35254;47.990;-1.608;2023-09-08T00:41:15;27.10;61.30
49379;DHT22;35254;47.990;-1.608;2023-09-08T00:43:41;27.10;61.40
49379;DHT22;35254;47.990;-1.608;2023-09-08T00:46:07;27.20;61.40
49379;DHT22;35254;47.990;-1.608;2023-09-08T00:48:33;27.20;61.50
49379;DHT22;35254;47.990;-1.608;2023-09-08T00:51:00;27.10;61.40
49379;DHT22;35254;47.990;-1.608;2023-09-08T00:53:26;27.10;61.50
49379;DHT22;35254;47.990;-1.608;2023-09-08T00:55:52;27.10;61.40
49379;DHT22;35254;47.990;-1.608;2023-09-08T00:58:19;27.10;61.50
49379;DHT22;35254;47.990;-1.608;2023-09-08T01:00:44;27.10;61.50
49379;DHT22;35254;47.990;-1.608;2023-09-08T01:03:11;27.10;61.30
49379;DHT22;35254;47.990;-1.608;2023-09-08T01:05:37;27.10;61.40
49379;DHT22;35254;47.990;-1.608;2023-09-08T01:08:03;27.10;61.60
49379;DHT22;35254;47.990;-1.608;2023-09-08T01:10:29;27.00;61.70
49379;DHT22;35254;47.990;-1.608;2023-09-08T01:12:55;27.10;61.70
49379;DHT22;35254;47.990;-1.608;2023-09-08T01:15:21;27.10;61.70
49379;DHT22;35254;47.990;-1.608;2023-09-08T01:17:46;27.10;61.60
49379;DHT22;35254;47.990;-1.608;2023-09-08T01:20:22;27.10;61.70
49379;DHT22;35254;47.990;-1.608;2023-09-08T01:25:59;27.00;61.60
49379;DHT22;35254;47.990;-1.608;2023-09-08T01:28:26;27.00;61.70
49379;DHT22;35254;47.990;-1.608;2023-09-08T01:30:54;27.00;61.70
49379;DHT22;35254;47.990;-1.608;2023-09-08T01:33:22;27.00;61.30
49379;DHT22;35254;47.990;-1.608;2023-09-08T01:35:48;27.00;61.40
49379;DHT22;35254;47.990;-1.608;2023-09-08T01:38:14;27.00;61.40
49379;DHT22;35254;47.990;-1.608;2023-09-08T01:40:41;27.00;61.40
49379;DHT22;35254;47.990;-1.608;2023-09-08T01:43:06;27.00;61.30
49379;DHT22;35254;47.990;-1.608;2023-09-08T01:45:32;26.90;61.40
49379;DHT22;35254;47.990;-1.608;2023-09-08T01:47:58;26.90;61.30
49379;DHT22;35254;47.990;-1.608;2023-09-08T01:50:23;27.00;61.30
49379;DHT22;35254;47.990;-1.608;2023-09-08T01:52:50;26.90;61.40
49379;DHT22;35254;47.990;-1.608;2023-09-08T01:55:16;27.00;61.20
49379;DHT22;35254;47.990;-1.608;2023-09-08T01:57:42;26.90;61.30
49379;DHT22;35254;47.990;-1.608;2023-09-08T02:00:09;26.90;61.20
49379;DHT22;35254;47.990;-1.608;2023-09-08T02:02:35;26.90;61.30
49379;DHT22;35254;47.990;-1.608;2023-09-08T02:05:00;26.90;61.20
49379;DHT22;35254;47.990;-1.608;2023-09-08T02:07:26;26.90;61.30
49379;DHT22;35254;47.990;-1.608;2023-09-08T02:09:52;26.90;61.30
49379;DHT22;35254;47.990;-1.608;2023-09-08T02:12:17;26.90;61.40
49379;DHT22;35254;47.990;-1.608;2023-09-08T02:14:43;26.90;61.10
49379;DHT22;35254;47.990;-1.608;2023-09-08T02:17:08;26.90;61.20
49379;DHT22;35254;47.990;-1.608;2023-09-08T02:19:35;26.90;61.20
49379;DHT22;35254;47.990;-1.608;2023-09-08T02:22:00;26.90;61.20
49379;DHT22;35254;47.990;-1.608;2023-09-08T02:24:26;26.90;61.10
49379;DHT22;35254;47.990;-1.608;2023-09-08T02:26:53;26.90;60.90
49379;DHT22;35254;47.990;-1.608;2023-09-08T02:29:19;26.80;61.00
49379;DHT22;35254;47.990;-1.608;2023-09-08T02:31:44;26.80;60.90
49379;DHT22;35254;47.990;-1.608;2023-09-08T02:34:10;26.90;60.80
49379;DHT22;35254;47.990;-1.608;2023-09-08T02:36:38;26.80;61.10
49379;DHT22;35254;47.990;-1.608;2023-09-08T02:39:03;26.80;60.90
49379;DHT22;35254;47.990;-1.608;2023-09-08T02:41:29;26.80;60.90
49379;DHT22;35254;47.990;-1.608;2023-09-08T02:43:56;26.80;60.90
49379;DHT22;35254;47.990;-1.608;2023-09-08T02:46:22;26.80;60.90
49379;DHT22;35254;47.990;-1.608;2023-09-08T02:48:47;26.80;60.90
49379;DHT22;35254;47.990;-1.608;2023-09-08T02:51:13;26.80;60.90
49379;DHT22;35254;47.990;-1.608;2023-09-08T02:53:38;26.80;60.90
49379;DHT22;35254;47.990;-1.608;2023-09-08T02:56:04;26.70;61.00
49379;DHT22;35254;47.990;-1.608;2023-09-08T02:58:31;26.80;60.90
49379;DHT22;35254;47.990;-1.608;2023-09-08T03:01:13;26.70;61.00
49379;DHT22;35254;47.990;-1.608;2023-09-08T03:03:43;26.80;61.00
49379;DHT22;35254;47.990;-1.608;2023-09-08T03:06:10;26.70;60.90
49379;DHT22;35254;47.990;-1.608;2023-09-08T03:08:36;26.70;61.00
49379;DHT22;35254;47.990;-1.608;2023-09-08T03:11:03;26.70;60.80
49379;DHT22;35254;47.990;-1.608;2023-09-08T03:13:30;26.70;60.90
49379;DHT22;35254;47.990;-1.608;2023-09-08T03:15:56;26.70;60.90
49379;DHT22;35254;47.990;-1.608;2023-09-08T03:18:22;26.70;60.80
49379;DHT22;35254;47.990;-1.608;2023-09-08T03:20:49;26.70;60.80
49379;DHT22;35254;47.990;-1.608;2023-09-08T03:23:15;26.70;60.90
49379;DHT22;35254;47.990;-1.608;2023-09-08T03:25:41;26.70;60.90
49379;DHT22;35254;47.990;-1.608;2023-09-08T03:28:06;26.70;61.10
49379;DHT22;35254;47.990;-1.608;2023-09-08T03:30:32;26.70;61.00
49379;DHT22;35254;47.990;-1.608;2023-09-08T03:32:58;26.70;61.00
49379;DHT22;35254;47.990;-1.608;2023-09-08T03:35:23;26.70;60.80
49379;DHT22;35254;47.990;-1.608;2023-09-08T03:37:49;26.70;60.80
49379;DHT22;35254;47.990;-1.608;2023-09-08T03:40:14;26.70;60.60
49379;DHT22;35254;47.990;-1.608;2023-09-08T03:42:40;26.70;60.70
49379;DHT22;35254;47.990;-1.608;2023-09-08T03:45:07;26.70;60.60
49379;DHT22;35254;47.990;-1.608;2023-09-08T03:47:33;26.70;60.70
49379;DHT22;35254;47.990;-1.608;2023-09-08T03:49:59;26.70;60.70
49379;DHT22;35254;47.990;-1.608;2023-09-08T03:52:25;26.70;60.70
49379;DHT22;35254;47.990;-1.608;2023-09-08T03:54:50;26.70;60.70
49379;DHT22;35254;47.990;-1.608;2023-09-08T03:57:16;26.70;60.60
49379;DHT22;35254;47.990;-1.608;2023-09-08T03:59:42;26.60;60.60
49379;DHT22;35254;47.990;-1.608;2023-09-08T04:02:07;26.70;60.70
49379;DHT22;35254;47.990;-1.608;2023-09-08T04:04:33;26.60;60.70
49379;DHT22;35254;47.990;-1.608;2023-09-08T04:06:58;26.60;60.60
49379;DHT22;35254;47.990;-1.608;2023-09-08T04:09:24;26.60;60.60
49379;DHT22;35254;47.990;-1.608;2023-09-08T04:11:49;26.60;60.50
49379;DHT22;35254;47.990;-1.608;2023-09-08T04:14:16;26.60;60.50
49379;DHT22;35254;47.990;-1.608;2023-09-08T04:16:41;26.60;60.50
49379;DHT22;35254;47.990;-1.608;2023-09-08T04:19:07;26.60;60.40
49379;DHT22;35254;47.990;-1.608;2023-09-08T04:21:33;26.60;60.50
49379;DHT22;35254;47.990;-1.608;2023-09-08T04:23:59;26.60;60.50
49379;DHT22;35254;47.990;-1.608;2023-09-08T04:26:24;26.60;60.50
49379;DHT22;35254;47.990;-1.608;2023-09-08T04:28:50;26.60;60.60
49379;DHT22;35254;47.990;-1.608;2023-09-08T04:31:16;26.60;60.60
49379;DHT22;35254;47.990;-1.608;2023-09-08T04:33:43;26.60;60.60
49379;DHT22;35254;47.990;-1.608;2023-09-08T04:36:09;26.60;60.60
49379;DHT22;35254;47.990;-1.608;2023-09-08T04:38:36;26.60;60.60
49379;DHT22;35254;47.990;-1.608;2023-09-08T04:41:02;26.60;60.50
49379;DHT22;35254;47.990;-1.608;2023-09-08T04:43:27;26.60;60.50
49379;DHT22;35254;47.990;-1.608;2023-09-08T04:45:53;26.60;60.50
49379;DHT22;35254;47.990;-1.608;2023-09-08T04:48:18;26.50;60.60
49379;DHT22;35254;47.990;-1.608;2023-09-08T04:50:44;26.60;60.50
49379;DHT22;35254;47.990;-1.608;2023-09-08T04:53:10;26.50;60.30
49379;DHT22;35254;47.990;-1.608;2023-09-08T04:55:35;26.60;60.30
49379;DHT22;35254;47.990;-1.608;2023-09-08T04:58:01;26.50;60.30
49379;DHT22;35254;47.990;-1.608;2023-09-08T05:00:26;26.60;60.30
49379;DHT22;35254;47.990;-1.608;2023-09-08T05:02:52;26.50;60.10
49379;DHT22;35254;47.990;-1.608;2023-09-08T05:05:18;26.50;59.50
49379;DHT22;35254;47.990;-1.608;2023-09-08T05:07:43;26.50;59.70
49379;DHT22;35254;47.990;-1.608;2023-09-08T05:10:10;26.50;59.90
49379;DHT22;35254;47.990;-1.608;2023-09-08T05:12:36;26.50;60.00
49379;DHT22;35254;47.990;-1.608;2023-09-08T05:15:02;26.50;59.70
49379;DHT22;35254;47.990;-1.608;2023-09-08T05:17:32;26.50;59.70
49379;DHT22;35254;47.990;-1.608;2023-09-08T05:19:58;26.50;59.10
49379;DHT22;35254;47.990;-1.608;2023-09-08T05:22:24;26.50;58.70
49379;DHT22;35254;47.990;-1.608;2023-09-08T05:24:49;26.40;58.80
49379;DHT22;35254;47.990;-1.608;2023-09-08T05:27:15;26.40;59.00
49379;DHT22;35254;47.990;-1.608;2023-09-08T05:29:40;26.40;59.00
49379;DHT22;35254;47.990;-1.608;2023-09-08T05:32:06;26.40;59.10
49379;DHT22;35254;47.990;-1.608;2023-09-08T05:34:32;26.40;59.20
49379;DHT22;35254;47.990;-1.608;2023-09-08T05:36:57;26.40;59.10
49379;DHT22;35254;47.990;-1.608;2023-09-08T05:39:23;26.30;59.10
49379;DHT22;35254;47.990;-1.608;2023-09-08T05:41:48;26.30;59.10
49379;DHT22;35254;47.990;-1.608;2023-09-08T05:44:14;26.30;58.80
49379;DHT22;35254;47.990;-1.608;2023-09-08T05:46:40;26.30;58.70
49379;DHT22;35254;47.990;-1.608;2023-09-08T05:49:05;26.30;58.60
49379;DHT22;35254;47.990;-1.608;2023-09-08T05:51:32;26.30;58.80
49379;DHT22;35254;47.990;-1.608;2023-09-08T05:53:57;26.20;58.90
49379;DHT22;35254;47.990;-1.608;2023-09-08T05:56:30;26.20;59.00
49379;DHT22;35254;47.990;-1.608;2023-09-08T05:58:57;26.20;58.90
49379;DHT22;35254;47.990;-1.608;2023-09-08T06:01:23;26.20;59.20
49379;DHT22;35254;47.990;-1.608;2023-09-08T06:03:49;26.20;59.50
49379;DHT22;35254;47.990;-1.608;2023-09-08T06:06:15;26.20;59.50
49379;DHT22;35254;47.990;-1.608;2023-09-08T06:08:41;26.10;59.60
49379;DHT22;35254;47.990;-1.608;2023-09-08T06:11:06;26.10;59.50
49379;DHT22;35254;47.990;-1.608;2023-09-08T06:13:33;25.90;60.10
49379;DHT22;35254;47.990;-1.608;2023-09-08T06:15:59;25.80;60.50
49379;DHT22;35254;47.990;-1.608;2023-09-08T06:18:27;25.70;61.00
49379;DHT22;35254;47.990;-1.608;2023-09-08T06:20:53;25.70;61.50
49379;DHT22;35254;47.990;-1.608;2023-09-08T06:23:20;25.70;61.70
49379;DHT22;35254;47.990;-1.608;2023-09-08T06:25:46;25.60;61.70
49379;DHT22;35254;47.990;-1.608;2023-09-08T06:28:11;25.60;61.30
49379;DHT22;35254;47.990;-1.608;2023-09-08T06:30:37;25.50;61.30
49379;DHT22;35254;47.990;-1.608;2023-09-08T06:33:10;25.50;61.40
49379;DHT22;35254;47.990;-1.608;2023-09-08T06:35:35;25.50;61.70
49379;DHT22;35254;47.990;-1.608;2023-09-08T06:38:01;25.40;62.00
49379;DHT22;35254;47.990;-1.608;2023-09-08T06:40:29;25.40;62.00
49379;DHT22;35254;47.990;-1.608;2023-09-08T06:42:55;25.40;62.30
49379;DHT22;35254;47.990;-1.608;2023-09-08T06:45:20;25.30;62.40
49379;DHT22;35254;47.990;-1.608;2023-09-08T06:47:46;25.30;62.60
49379;DHT22;35254;47.990;-1.608;2023-09-08T06:50:12;25.30;62.50
49379;DHT22;35254;47.990;-1.608;2023-09-08T06:52:37;25.30;62.50
49379;DHT22;35254;47.990;-1.608;2023-09-08T06:55:03;25.20;62.90
49379;DHT22;35254;47.990;-1.608;2023-09-08T06:57:30;25.20;63.40
49379;DHT22;35254;47.990;-1.608;2023-09-08T06:59:56;25.20;64.10
49379;DHT22;35254;47.990;-1.608;2023-09-08T07:02:21;25.20;64.70
49379;DHT22;35254;47.990;-1.608;2023-09-08T07:04:47;25.20;65.30
49379;DHT22;35254;47.990;-1.608;2023-09-08T07:07:12;25.20;65.50
49379;DHT22;35254;47.990;-1.608;2023-09-08T07:09:39;25.20;65.20
49379;DHT22;35254;47.990;-1.608;2023-09-08T07:12:05;25.20;65.60
49379;DHT22;35254;47.990;-1.608;2023-09-08T07:14:32;25.20;65.70
49379;DHT22;35254;47.990;-1.608;2023-09-08T07:16:57;25.30;65.70
49379;DHT22;35254;47.990;-1.608;2023-09-08T07:19:23;25.20;66.00
49379;DHT22;35254;47.990;-1.608;2023-09-08T07:21:48;25.20;66.00
49379;DHT22;35254;47.990;-1.608;2023-09-08T07:24:15;25.30;66.30
49379;DHT22;35254;47.990;-1.608;2023-09-08T07:26:41;25.30;66.00
49379;DHT22;35254;47.990;-1.608;2023-09-08T07:29:07;25.30;65.80
49379;DHT22;35254;47.990;-1.608;2023-09-08T07:31:33;25.40;65.70
49379;DHT22;35254;47.990;-1.608;2023-09-08T07:33:58;25.40;65.60
49379;DHT22;35254;47.990;-1.608;2023-09-08T07:36:24;25.40;65.80
49379;DHT22;35254;47.990;-1.608;2023-09-08T07:38:49;25.40;65.80
49379;DHT22;35254;47.990;-1.608;2023-09-08T07:41:15;25.40;65.90
49379;DHT22;35254;47.990;-1.608;2023-09-08T07:43:41;25.40;65.80
49379;DHT22;35254;47.990;-1.608;2023-09-08T07:46:08;25.40;65.80
49379;DHT22;35254;47.990;-1.608;2023-09-08T07:48:33;25.40;66.30
49379;DHT22;35254;47.990;-1.608;2023-09-08T07:50:59;25.50;66.50
49379;DHT22;35254;47.990;-1.608;2023-09-08T07:53:26;25.50;66.60
49379;DHT22;35254;47.990;-1.608;2023-09-08T07:55:52;25.40;66.60
49379;DHT22;35254;47.990;-1.608;2023-09-08T07:58:17;25.50;66.80
49379;DHT22;35254;47.990;-1.608;2023-09-08T08:00:43;25.50;66.90
49379;DHT22;35254;47.990;-1.608;2023-09-08T08:03:09;25.40;66.80
49379;DHT22;35254;47.990;-1.608;2023-09-08T08:05:34;25.50;67.00
49379;DHT22;35254;47.990;-1.608;2023-09-08T08:08:00;25.50;67.10
49379;DHT22;35254;47.990;-1.608;2023-09-08T08:10:25;25.50;66.90
49379;DHT22;35254;47.990;-1.608;2023-09-08T08:12:51;25.50;67.00
49379;DHT22;35254;47.990;-1.608;2023-09-08T08:15:19;25.50;66.90
49379;DHT22;35254;47.990;-1.608;2023-09-08T08:17:46;25.50;67.10
49379;DHT22;35254;47.990;-1.608;2023-09-08T08:20:12;25.50;67.00
49379;DHT22;35254;47.990;-1.608;2023-09-08T08:22:43;25.50;67.10
49379;DHT22;35254;47.990;-1.608;2023-09-08T08:25:10;25.50;67.20
49379;DHT22;35254;47.990;-1.608;2023-09-08T08:27:36;25.50;67.40
49379;DHT22;35254;47.990;-1.608;2023-09-08T08:30:02;25.50;67.20
49379;DHT22;35254;47.990;-1.608;2023-09-08T08:32:29;25.60;67.30
49379;DHT22;35254;47.990;-1.608;2023-09-08T08:34:55;25.50;67.40
49379;DHT22;35254;47.990;-1.608;2023-09-08T08:37:20;25.50;67.50
49379;DHT22;35254;47.990;-1.608;2023-09-08T08:39:46;25.50;67.40
49379;DHT22;35254;47.990;-1.608;2023-09-08T08:42:12;25.50;67.40
49379;DHT22;35254;47.990;-1.608;2023-09-08T08:44:38;25.50;67.20
49379;DHT22;35254;47.990;-1.608;2023-09-08T08:47:07;25.50;67.30
49379;DHT22;35254;47.990;-1.608;2023-09-08T08:49:33;25.50;67.00
49379;DHT22;35254;47.990;-1.608;2023-09-08T08:51:59;25.60;67.00
49379;DHT22;35254;47.990;-1.608;2023-09-08T08:54:29;25.50;67.10
49379;DHT22;35254;47.990;-1.608;2023-09-08T08:56:56;25.50;67.20
49379;DHT22;35254;47.990;-1.608;2023-09-08T08:59:22;25.50;67.30
49379;DHT22;35254;47.990;-1.608;2023-09-08T09:01:48;25.60;67.20
49379;DHT22;35254;47.990;-1.608;2023-09-08T09:04:16;25.60;67.20
49379;DHT22;35254;47.990;-1.608;2023-09-08T09:06:42;25.50;67.20
49379;DHT22;35254;47.990;-1.608;2023-09-08T09:09:08;25.50;67.10
49379;DHT22;35254;47.990;-1.608;2023-09-08T09:11:36;25.60;67.20
49379;DHT22;35254;47.990;-1.608;2023-09-08T09:14:01;25.60;67.10
49379;DHT22;35254;47.990;-1.608;2023-09-08T09:16:27;25.60;67.20
49379;DHT22;35254;47.990;-1.608;2023-09-08T09:18:58;25.60;67.00
49379;DHT22;35254;47.990;-1.608;2023-09-08T09:21:24;25.60;67.00
49379;DHT22;35254;47.990;-1.608;2023-09-08T09:23:50;25.60;67.10
49379;DHT22;35254;47.990;-1.608;2023-09-08T09:26:26;25.50;67.20
49379;DHT22;35254;47.990;-1.608;2023-09-08T09:28:52;25.50;67.10
49379;DHT22;35254;47.990;-1.608;2023-09-08T09:31:23;25.60;67.10
49379;DHT22;35254;47.990;-1.608;2023-09-08T09:34:01;25.60;67.20
49379;DHT22;35254;47.990;-1.608;2023-09-08T09:36:29;25.60;67.00
49379;DHT22;35254;47.990;-1.608;2023-09-08T09:38:59;25.60;67.10
49379;DHT22;35254;47.990;-1.608;2023-09-08T09:41:27;25.60;67.10
49379;DHT22;35254;47.990;-1.608;2023-09-08T09:43:53;25.60;67.30
49379;DHT22;35254;47.990;-1.608;2023-09-08T09:46:19;25.60;67.30
49379;DHT22;35254;47.990;-1.608;2023-09-08T09:48:50;25.60;67.30
49379;DHT22;35254;47.990;-1.608;2023-09-08T09:51:18;25.60;67.20
49379;DHT22;35254;47.990;-1.608;2023-09-08T09:53:45;25.60;67.30
49379;DHT22;35254;47.990;-1.608;2023-09-08T09:56:11;25.60;67.30
49379;DHT22;35254;47.990;-1.608;2023-09-08T09:58:38;25.60;67.90
49379;DHT22;35254;47.990;-1.608;2023-09-08T10:01:04;25.60;67.50
49379;DHT22;35254;47.990;-1.608;2023-09-08T10:03:31;25.60;67.50
49379;DHT22;35254;47.990;-1.608;2023-09-08T10:05:59;25.60;66.90
49379;DHT22;35254;47.990;-1.608;2023-09-08T10:08:25;25.60;67.70
49379;DHT22;35254;47.990;-1.608;2023-09-08T10:10:51;25.60;67.00
49379;DHT22;35254;47.990;-1.608;2023-09-08T10:13:23;25.60;67.10
49379;DHT22;35254;47.990;-1.608;2023-09-08T10:15:53;25.60;67.00
49379;DHT22;35254;47.990;-1.608;2023-09-08T10:18:22;25.70;67.40
49379;DHT22;35254;47.990;-1.608;2023-09-08T10:20:49;25.70;68.00
49379;DHT22;35254;47.990;-1.608;2023-09-08T10:23:22;25.70;68.00
49379;DHT22;35254;47.990;-1.608;2023-09-08T10:25:53;25.70;68.10
49379;DHT22;35254;47.990;-1.608;2023-09-08T10:28:22;25.70;67.30
49379;DHT22;35254;47.990;-1.608;2023-09-08T10:30:48;25.70;68.70
49379;DHT22;35254;47.990;-1.608;2023-09-08T10:33:15;25.70;67.80
49379;DHT22;35254;47.990;-1.608;2023-09-08T10:35:42;25.70;68.50
49379;DHT22;35254;47.990;-1.608;2023-09-08T10:38:29;25.70;67.40
49379;DHT22;35254;47.990;-1.608;2023-09-08T10:43:46;25.70;67.30
49379;DHT22;35254;47.990;-1.608;2023-09-08T10:46:23;25.70;67.40
49379;DHT22;35254;47.990;-1.608;2023-09-08T10:48:53;25.70;67.20
49379;DHT22;35254;47.990;-1.608;2023-09-08T10:51:20;25.70;67.20
49379;DHT22;35254;47.990;-1.608;2023-09-08T10:53:48;25.70;67.30
49379;DHT22;35254;47.990;-1.608;2023-09-08T10:56:15;25.70;67.20
49379;DHT22;35254;47.990;-1.608;2023-09-08T10:58:40;25.70;67.10
49379;DHT22;35254;47.990;-1.608;2023-09-08T11:01:13;25.80;67.30
49379;DHT22;35254;47.990;-1.608;2023-09-08T11:06:06;25.70;67.50
49379;DHT22;35254;47.990;-1.608;2023-09-08T11:08:41;25.80;67.90
49379;DHT22;35254;47.990;-1.608;2023-09-08T11:11:07;25.80;68.70
49379;DHT22;35254;47.990;-1.608;2023-09-08T11:13:33;25.80;68.20
49379;DHT22;35254;47.990;-1.608;2023-09-08T11:15:58;25.80;68.10
49379;DHT22;35254;47.990;-1.608;2023-09-08T11:18:31;25.80;68.00
49379;DHT22;35254;47.990;-1.608;2023-09-08T11:20:57;25.80;67.90
49379;DHT22;35254;47.990;-1.608;2023-09-08T11:23:23;25.80;68.00
49379;DHT22;35254;47.990;-1.608;2023-09-08T11:25:50;25.80;67.90
49379;DHT22;35254;47.990;-1.608;2023-09-08T11:28:17;25.80;67.80
49379;DHT22;35254;47.990;-1.608;2023-09-08T11:30:43;25.80;67.90
49379;DHT22;35254;47.990;-1.608;2023-09-08T11:33:15;25.80;67.80
49379;DHT22;35254;47.990;-1.608;2023-09-08T11:35:41;25.80;67.90
49379;DHT22;35254;47.990;-1.608;2023-09-08T11:38:10;25.80;67.80
49379;DHT22;35254;47.990;-1.608;2023-09-08T11:40:36;25.80;67.90
49379;DHT22;35254;47.990;-1.608;2023-09-08T11:43:03;25.80;67.90
49379;DHT22;35254;47.990;-1.608;2023-09-08T11:45:30;25.80;67.90
49379;DHT22;35254;47.990;-1.608;2023-09-08T11:47:56;25.80;67.90
49379;DHT22;35254;47.990;-1.608;2023-09-08T11:50:22;25.80;67.90
49379;DHT22;35254;47.990;-1.608;2023-09-08T11:52:50;25.80;67.90
49379;DHT22;35254;47.990;-1.608;2023-09-08T11:55:17;25.80;67.90
49379;DHT22;35254;47.990;-1.608;2023-09-08T11:57:46;25.80;67.90
49379;DHT22;35254;47.990;-1.608;2023-09-08T12:00:13;25.80;67.90
49379;DHT22;35254;47.990;-1.608;2023-09-08T12:02:43;25.90;67.90
49379;DHT22;35254;47.990;-1.608;2023-09-08T12:05:13;25.80;68.00
49379;DHT22;35254;47.990;-1.608;2023-09-08T12:07:39;25.80;67.90
49379;DHT22;35254;47.990;-1.608;2023-09-08T12:10:11;25.90;67.90
49379;DHT22;35254;47.990;-1.608;2023-09-08T12:12:50;25.80;68.00
49379;DHT22;35254;47.990;-1.608;2023-09-08T12:15:31;25.90;67.90
49379;DHT22;35254;47.990;-1.608;2023-09-08T12:17:58;25.80;67.60
49379;DHT22;35254;47.990;-1.608;2023-09-08T12:20:24;25.90;67.90
49379;DHT22;35254;47.990;-1.608;2023-09-08T12:22:50;25.80;67.80
49379;DHT22;35254;47.990;-1.608;2023-09-08T12:25:16;25.80;67.80
49379;DHT22;35254;47.990;-1.608;2023-09-08T12:27:42;25.90;67.70
49379;DHT22;35254;47.990;-1.608;2023-09-08T12:30:08;25.90;67.50
49379;DHT22;35254;47.990;-1.608;2023-09-08T12:32:35;25.80;67.70
49379;DHT22;35254;47.990;-1.608;2023-09-08T12:35:03;25.90;67.30
49379;DHT22;35254;47.990;-1.608;2023-09-08T12:37:30;25.90;67.30
49379;DHT22;35254;47.990;-1.608;2023-09-08T12:39:58;25.90;67.50
49379;DHT22;35254;47.990;-1.608;2023-09-08T12:42:26;25.90;67.30
49379;DHT22;35254;47.990;-1.608;2023-09-08T12:44:54;25.90;67.20
49379;DHT22;35254;47.990;-1.608;2023-09-08T12:47:20;25.90;67.20
49379;DHT22;35254;47.990;-1.608;2023-09-08T12:49:46;25.90;67.00
49379;DHT22;35254;47.990;-1.608;2023-09-08T12:52:12;25.90;67.00
49379;DHT22;35254;47.990;-1.608;2023-09-08T12:54:37;26.00;67.00
49379;DHT22;35254;47.990;-1.608;2023-09-08T12:57:03;25.90;66.90
49379;DHT22;35254;47.990;-1.608;2023-09-08T12:59:29;26.00;67.00
49379;DHT22;35254;47.990;-1.608;2023-09-08T13:01:55;26.00;67.00
49379;DHT22;35254;47.990;-1.608;2023-09-08T13:04:21;26.00;66.80
49379;DHT22;35254;47.990;-1.608;2023-09-08T13:06:48;26.00;66.90
49379;DHT22;35254;47.990;-1.608;2023-09-08T13:09:15;26.00;67.00
49379;DHT22;35254;47.990;-1.608;2023-09-08T13:11:41;26.00;66.90
49379;DHT22;35254;47.990;-1.608;2023-09-08T13:14:07;26.10;66.90
49379;DHT22;35254;47.990;-1.608;2023-09-08T13:16:33;26.00;66.90
49379;DHT22;35254;47.990;-1.608;2023-09-08T13:18:59;26.00;66.80
49379;DHT22;35254;47.990;-1.608;2023-09-08T13:21:24;26.10;66.80
49379;DHT22;35254;47.990;-1.608;2023-09-08T13:23:50;26.10;66.80
49379;DHT22;35254;47.990;-1.608;2023-09-08T13:26:15;26.00;66.80
49379;DHT22;35254;47.990;-1.608;2023-09-08T13:28:41;26.10;66.80
49379;DHT22;35254;47.990;-1.608;2023-09-08T13:31:07;26.10;66.80
49379;DHT22;35254;47.990;-1.608;2023-09-08T13:33:32;26.10;66.80
49379;DHT22;35254;47.990;-1.608;2023-09-08T13:35:58;26.10;66.80
49379;DHT22;35254;47.990;-1.608;2023-09-08T13:38:24;26.10;66.90
49379;DHT22;35254;47.990;-1.608;2023-09-08T13:40:49;26.10;66.90
49379;DHT22;35254;47.990;-1.608;2023-09-08T13:43:15;26.10;67.00
49379;DHT22;35254;47.990;-1.608;2023-09-08T13:45:41;26.10;67.00
49379;DHT22;35254;47.990;-1.608;2023-09-08T13:48:08;26.10;67.00
49379;DHT22;35254;47.990;-1.608;2023-09-08T13:50:33;26.20;67.10
49379;DHT22;35254;47.990;-1.608;2023-09-08T13:52:59;26.20;67.00
49379;DHT22;35254;47.990;-1.608;2023-09-08T13:55:25;26.20;67.10
49379;DHT22;35254;47.990;-1.608;2023-09-08T13:57:50;26.20;67.20
49379;DHT22;35254;47.990;-1.608;2023-09-08T14:00:17;26.20;67.30
49379;DHT22;35254;47.990;-1.608;2023-09-08T14:02:43;26.20;67.40
49379;DHT22;35254;47.990;-1.608;2023-09-08T14:05:09;26.20;67.20
49379;DHT22;35254;47.990;-1.608;2023-09-08T14:07:35;26.20;67.10
49379;DHT22;35254;47.990;-1.608;2023-09-08T14:10:00;26.20;67.20
49379;DHT22;35254;47.990;-1.608;2023-09-08T14:12:27;26.20;67.00
49379;DHT22;35254;47.990;-1.608;2023-09-08T14:14:52;26.20;67.10
49379;DHT22;35254;47.990;-1.608;2023-09-08T14:17:18;26.20;67.10
49379;DHT22;35254;47.990;-1.608;2023-09-08T14:19:43;26.20;67.30
49379;DHT22;35254;47.990;-1.608;2023-09-08T14:22:09;26.20;67.10
49379;DHT22;35254;47.990;-1.608;2023-09-08T14:24:35;26.20;67.20
49379;DHT22;35254;47.990;-1.608;2023-09-08T14:27:00;26.20;67.20
49379;DHT22;35254;47.990;-1.608;2023-09-08T14:29:26;26.20;67.30
49379;DHT22;35254;47.990;-1.608;2023-09-08T14:31:51;26.20;67.30
49379;DHT22;35254;47.990;-1.608;2023-09-08T14:34:17;26.20;67.40
49379;DHT22;35254;47.990;-1.608;2023-09-08T14:36:43;26.20;67.50
49379;DHT22;35254;47.990;-1.608;2023-09-08T14:39:09;26.20;67.40
49379;DHT22;35254;47.990;-1.608;2023-09-08T14:41:34;26.20;67.50
49379;DHT22;35254;47.990;-1.608;2023-09-08T14:44:00;26.20;67.50
49379;DHT22;35254;47.990;-1.608;2023-09-08T14:46:26;26.30;67.60
49379;DHT22;35254;47.990;-1.608;2023-09-08T14:48:51;26.30;67.70
49379;DHT22;35254;47.990;-1.608;2023-09-08T14:51:17;26.30;67.50
49379;DHT22;35254;47.990;-1.608;2023-09-08T14:53:42;26.30;67.30
49379;DHT22;35254;47.990;-1.608;2023-09-08T14:56:08;26.30;67.60
49379;DHT22;35254;47.990;-1.608;2023-09-08T14:58:34;26.30;67.90
49379;DHT22;35254;47.990;-1.608;2023-09-08T15:01:03;26.30;67.80
49379;DHT22;35254;47.990;-1.608;2023-09-08T15:03:33;26.30;67.90
49379;DHT22;35254;47.990;-1.608;2023-09-08T15:05:59;26.30;67.60
49379;DHT22;35254;47.990;-1.608;2023-09-08T15:08:25;26.30;67.40
49379;DHT22;35254;47.990;-1.608;2023-09-08T15:10:51;26.40;67.50
49379;DHT22;35254;47.990;-1.608;2023-09-08T15:13:19;26.40;67.50
49379;DHT22;35254;47.990;-1.608;2023-09-08T15:15:44;26.40;67.60
49379;DHT22;35254;47.990;-1.608;2023-09-08T15:18:10;26.40;67.30
49379;DHT22;35254;47.990;-1.608;2023-09-08T15:20:36;26.40;67.50